CheckWX is a tool to help pilots better visualize weather data.  It is not intended as a substitute for an official pre-flight weather briefing.

19:17:21 UTC

KGPI METAR
Glacier Park International Airport
Kalispell, Montana, USA
Current

22 mins ago

KGPI 261855Z VRB05KT 9SM -RA BKN060 OVC075 12/07 A3000 RMK AO2 RAE33B51 SLP156 P0001 T01220072
Observed
May-26 @ 18:55 UTC
Wind
  • Variable at 5 KTS
Visibility
9 SM
Flight Rules
VFR
Conditions
Light Rain
Cloud Levels
  • Broken at 6,000' AGL
  • Overcast at 7,500' AGL
Temperature
12°C / 54°F
Dewpoint
C / 45°F
Humidity
72%
Altimeter
30" Hg
Pressure
1015.92 hPa
Current Rain
0.01"
Previous

1 hour ago

KGPI 261755Z 03007KT 6SM RA FEW039 OVC060 11/06 A2999 RMK AO2 SLP155 P0003 60004 T01060056 10122 20106 51011
Observed
May-26 @ 17:55 UTC
Wind
  • 030° at 7 KTS
Visibility
6 SM
Flight Rules
VFR
Conditions
Rain
Cloud Levels
  • Few at 3,900' AGL
  • Overcast at 6,000' AGL
Temperature
11°C / 52°F
Dewpoint
C / 43°F
Humidity
72%
Altimeter
29.99" Hg
Pressure
1015.62 hPa
Current Rain
0.03"
Previous

2 hours ago

KGPI 261655Z 04011KT 10SM -RA OVC065 11/05 A2998 RMK AO2 RAB36 SLP150 P0001 T01110050
Observed
May-26 @ 16:55 UTC
Wind
  • 040° at 11 KTS
Visibility
10 SM
Flight Rules
VFR
Conditions
Light Rain
Cloud Levels
  • Overcast at 6,500' AGL
Temperature
11°C / 52°F
Dewpoint
C / 41°F
Humidity
67%
Altimeter
29.98" Hg
Pressure
1015.22 hPa
Current Rain
0.01"